Redding (RDD/KRDD)

Map

Destinations

Information

Location
Redding, CA
Local Time
06:13 / 6:13 am
GMT Time
14:13 / 2:13 pm
Gates
Unassigned
No FAA reported delays
METAR KRDD 221353Z AUTO 21016G26KT 10SM BKN014 OVC019 08/07 A2956 RMK AO2 PK WND 18037/1328 RAE43 PRESRR SLP010 P0002 T00830067
TAF KRDD 221137Z 2212/2312 18025G40KT P6SM RA OVC020 FM221500 18020G25KT P6SM -RA OVC020 FM221800 18015KT P6SM -RA OVC020 FM222100 18012KT P6SM -SHRA OVC025 FM230300 18010KT P6SM -SHRA OVC025
  • No charts available